sensor_id;sensor_type;location;lat;lon;timestamp;P1;durP1;ratioP1;P2;durP2;ratioP2
56653;SDS011;45096;52.302;4.634;2023-05-07T00:00:21;5.28;;;4.80;;
56653;SDS011;45096;52.302;4.634;2023-05-07T00:02:48;5.60;;;5.00;;
56653;SDS011;45096;52.302;4.634;2023-05-07T00:05:13;5.82;;;4.88;;
56653;SDS011;45096;52.302;4.634;2023-05-07T00:07:39;5.05;;;4.65;;
56653;SDS011;45096;52.302;4.634;2023-05-07T00:10:04;4.88;;;4.40;;
56653;SDS011;45096;52.302;4.634;2023-05-07T00:12:31;5.38;;;4.90;;
56653;SDS011;45096;52.302;4.634;2023-05-07T00:14:56;5.20;;;4.80;;
56653;SDS011;45096;52.302;4.634;2023-05-07T00:17:22;7.38;;;6.75;;
56653;SDS011;45096;52.302;4.634;2023-05-07T00:19:49;5.05;;;4.22;;
56653;SDS011;45096;52.302;4.634;2023-05-07T00:22:14;6.05;;;5.45;;
56653;SDS011;45096;52.302;4.634;2023-05-07T00:24:39;5.50;;;5.07;;
56653;SDS011;45096;52.302;4.634;2023-05-07T00:27:05;4.78;;;4.40;;
56653;SDS011;45096;52.302;4.634;2023-05-07T00:29:30;5.30;;;4.90;;
56653;SDS011;45096;52.302;4.634;2023-05-07T00:31:56;5.10;;;4.70;;
56653;SDS011;45096;52.302;4.634;2023-05-07T00:34:21;5.20;;;4.55;;
56653;SDS011;45096;52.302;4.634;2023-05-07T00:36:48;4.97;;;4.53;;
56653;SDS011;45096;52.302;4.634;2023-05-07T00:39:13;5.43;;;5.03;;
56653;SDS011;45096;52.302;4.634;2023-05-07T00:41:39;5.40;;;4.75;;
56653;SDS011;45096;52.302;4.634;2023-05-07T00:44:04;7.40;;;5.55;;
56653;SDS011;45096;52.302;4.634;2023-05-07T00:46:30;10.43;;;9.38;;
56653;SDS011;45096;52.302;4.634;2023-05-07T00:48:55;6.65;;;6.05;;
56653;SDS011;45096;52.302;4.634;2023-05-07T00:51:21;5.93;;;5.40;;
56653;SDS011;45096;52.302;4.634;2023-05-07T00:53:48;8.65;;;7.85;;
56653;SDS011;45096;52.302;4.634;2023-05-07T00:56:13;10.35;;;8.50;;
56653;SDS011;45096;52.302;4.634;2023-05-07T00:58:39;8.18;;;7.38;;
56653;SDS011;45096;52.302;4.634;2023-05-07T01:01:05;6.72;;;6.10;;
56653;SDS011;45096;52.302;4.634;2023-05-07T01:03:30;11.10;;;10.13;;
56653;SDS011;45096;52.302;4.634;2023-05-07T01:05:56;6.63;;;6.03;;
56653;SDS011;45096;52.302;4.634;2023-05-07T01:08:22;7.25;;;6.55;;
56653;SDS011;45096;52.302;4.634;2023-05-07T01:10:49;6.38;;;5.88;;
56653;SDS011;45096;52.302;4.634;2023-05-07T01:13:15;13.50;;;11.02;;
56653;SDS011;45096;52.302;4.634;2023-05-07T01:15:41;8.45;;;7.57;;
56653;SDS011;45096;52.302;4.634;2023-05-07T01:18:07;12.38;;;10.70;;
56653;SDS011;45096;52.302;4.634;2023-05-07T01:20:33;10.27;;;8.30;;
56653;SDS011;45096;52.302;4.634;2023-05-07T01:23:00;8.10;;;7.15;;
56653;SDS011;45096;52.302;4.634;2023-05-07T01:25:26;7.22;;;6.55;;
56653;SDS011;45096;52.302;4.634;2023-05-07T01:27:51;7.35;;;6.50;;
56653;SDS011;45096;52.302;4.634;2023-05-07T01:30:17;6.45;;;5.85;;
56653;SDS011;45096;52.302;4.634;2023-05-07T01:32:46;9.10;;;8.25;;
56653;SDS011;45096;52.302;4.634;2023-05-07T01:35:18;8.35;;;7.45;;
56653;SDS011;45096;52.302;4.634;2023-05-07T01:37:44;10.48;;;9.50;;
56653;SDS011;45096;52.302;4.634;2023-05-07T01:40:11;8.52;;;7.10;;
56653;SDS011;45096;52.302;4.634;2023-05-07T01:42:37;8.90;;;8.07;;
56653;SDS011;45096;52.302;4.634;2023-05-07T01:45:03;7.10;;;6.45;;
56653;SDS011;45096;52.302;4.634;2023-05-07T01:47:29;8.65;;;7.70;;
56653;SDS011;45096;52.302;4.634;2023-05-07T01:49:55;7.95;;;7.18;;
56653;SDS011;45096;52.302;4.634;2023-05-07T01:52:20;7.55;;;6.78;;
56653;SDS011;45096;52.302;4.634;2023-05-07T01:54:46;15.40;;;12.60;;
56653;SDS011;45096;52.302;4.634;2023-05-07T01:57:12;8.70;;;7.80;;
56653;SDS011;45096;52.302;4.634;2023-05-07T01:59:38;9.05;;;7.82;;
56653;SDS011;45096;52.302;4.634;2023-05-07T02:02:03;8.40;;;7.38;;
56653;SDS011;45096;52.302;4.634;2023-05-07T02:04:29;9.15;;;8.25;;
56653;SDS011;45096;52.302;4.634;2023-05-07T02:06:54;8.57;;;7.75;;
56653;SDS011;45096;52.302;4.634;2023-05-07T02:09:20;8.70;;;7.13;;
56653;SDS011;45096;52.302;4.634;2023-05-07T02:11:45;12.00;;;10.68;;
56653;SDS011;45096;52.302;4.634;2023-05-07T02:14:12;11.10;;;9.90;;
56653;SDS011;45096;52.302;4.634;2023-05-07T02:16:37;8.80;;;7.97;;
56653;SDS011;45096;52.302;4.634;2023-05-07T02:19:03;9.55;;;8.65;;
56653;SDS011;45096;52.302;4.634;2023-05-07T02:21:28;8.63;;;7.72;;
56653;SDS011;45096;52.302;4.634;2023-05-07T02:23:53;7.90;;;7.20;;
56653;SDS011;45096;52.302;4.634;2023-05-07T02:26:19;9.38;;;8.38;;
56653;SDS011;45096;52.302;4.634;2023-05-07T02:28:44;8.95;;;7.97;;
56653;SDS011;45096;52.302;4.634;2023-05-07T02:31:11;7.80;;;7.00;;
56653;SDS011;45096;52.302;4.634;2023-05-07T02:33:36;13.73;;;12.10;;
56653;SDS011;45096;52.302;4.634;2023-05-07T02:36:05;8.52;;;7.72;;
56653;SDS011;45096;52.302;4.634;2023-05-07T02:38:31;12.38;;;11.18;;
56653;SDS011;45096;52.302;4.634;2023-05-07T02:40:57;8.57;;;7.70;;
56653;SDS011;45096;52.302;4.634;2023-05-07T02:43:22;16.52;;;13.55;;
56653;SDS011;45096;52.302;4.634;2023-05-07T02:45:48;10.73;;;9.13;;
56653;SDS011;45096;52.302;4.634;2023-05-07T02:48:15;12.05;;;10.80;;
56653;SDS011;45096;52.302;4.634;2023-05-07T02:50:40;11.20;;;10.10;;
56653;SDS011;45096;52.302;4.634;2023-05-07T02:53:05;13.30;;;11.90;;
56653;SDS011;45096;52.302;4.634;2023-05-07T02:55:31;8.13;;;7.32;;
56653;SDS011;45096;52.302;4.634;2023-05-07T02:57:56;10.10;;;9.10;;
56653;SDS011;45096;52.302;4.634;2023-05-07T03:00:22;9.15;;;8.27;;
56653;SDS011;45096;52.302;4.634;2023-05-07T03:02:47;9.80;;;8.65;;
56653;SDS011;45096;52.302;4.634;2023-05-07T03:05:14;9.40;;;8.32;;
56653;SDS011;45096;52.302;4.634;2023-05-07T03:07:40;10.88;;;9.77;;
56653;SDS011;45096;52.302;4.634;2023-05-07T03:10:06;8.20;;;7.40;;
56653;SDS011;45096;52.302;4.634;2023-05-07T03:12:31;8.85;;;7.95;;
56653;SDS011;45096;52.302;4.634;2023-05-07T03:14:57;8.38;;;7.57;;
56653;SDS011;45096;52.302;4.634;2023-05-07T03:17:22;7.95;;;7.15;;
56653;SDS011;45096;52.302;4.634;2023-05-07T03:19:48;7.85;;;7.05;;
56653;SDS011;45096;52.302;4.634;2023-05-07T03:22:15;7.65;;;6.95;;
56653;SDS011;45096;52.302;4.634;2023-05-07T03:24:40;7.78;;;6.97;;
56653;SDS011;45096;52.302;4.634;2023-05-07T03:27:05;7.18;;;6.55;;
56653;SDS011;45096;52.302;4.634;2023-05-07T03:29:31;7.28;;;6.55;;
56653;SDS011;45096;52.302;4.634;2023-05-07T03:31:56;7.00;;;6.20;;
56653;SDS011;45096;52.302;4.634;2023-05-07T03:34:22;7.47;;;6.82;;
56653;SDS011;45096;52.302;4.634;2023-05-07T03:36:47;6.03;;;5.43;;
56653;SDS011;45096;52.302;4.634;2023-05-07T03:39:14;7.75;;;6.45;;
56653;SDS011;45096;52.302;4.634;2023-05-07T03:41:40;6.43;;;5.93;;
56653;SDS011;45096;52.302;4.634;2023-05-07T03:44:05;6.75;;;6.05;;
56653;SDS011;45096;52.302;4.634;2023-05-07T03:46:30;8.90;;;7.65;;
56653;SDS011;45096;52.302;4.634;2023-05-07T03:48:56;6.15;;;5.47;;
56653;SDS011;45096;52.302;4.634;2023-05-07T03:51:21;6.25;;;5.65;;
56653;SDS011;45096;52.302;4.634;2023-05-07T03:53:47;6.57;;;5.97;;
56653;SDS011;45096;52.302;4.634;2023-05-07T03:56:14;7.05;;;6.45;;
56653;SDS011;45096;52.302;4.634;2023-05-07T03:58:39;6.15;;;5.65;;
56653;SDS011;45096;52.302;4.634;2023-05-07T04:01:05;5.78;;;5.28;;
56653;SDS011;45096;52.302;4.634;2023-05-07T04:03:30;5.60;;;5.20;;
56653;SDS011;45096;52.302;4.634;2023-05-07T04:05:55;6.35;;;5.70;;
56653;SDS011;45096;52.302;4.634;2023-05-07T04:08:21;6.43;;;5.57;;
56653;SDS011;45096;52.302;4.634;2023-05-07T04:10:46;5.43;;;5.00;;
56653;SDS011;45096;52.302;4.634;2023-05-07T04:13:13;5.60;;;5.10;;
56653;SDS011;45096;52.302;4.634;2023-05-07T04:15:38;5.25;;;4.78;;
56653;SDS011;45096;52.302;4.634;2023-05-07T04:18:04;6.63;;;5.85;;
56653;SDS011;45096;52.302;4.634;2023-05-07T04:20:29;4.53;;;4.13;;
56653;SDS011;45096;52.302;4.634;2023-05-07T04:22:55;4.50;;;4.10;;
56653;SDS011;45096;52.302;4.634;2023-05-07T04:25:20;4.30;;;4.00;;
56653;SDS011;45096;52.302;4.634;2023-05-07T04:27:46;6.35;;;5.70;;
56653;SDS011;45096;52.302;4.634;2023-05-07T04:30:13;4.57;;;4.18;;
56653;SDS011;45096;52.302;4.634;2023-05-07T04:32:39;4.20;;;3.90;;
56653;SDS011;45096;52.302;4.634;2023-05-07T04:35:04;3.95;;;3.72;;
56653;SDS011;45096;52.302;4.634;2023-05-07T04:37:31;4.60;;;4.20;;
56653;SDS011;45096;52.302;4.634;2023-05-07T04:39:57;4.45;;;4.10;;
56653;SDS011;45096;52.302;4.634;2023-05-07T04:42:22;4.75;;;4.25;;
56653;SDS011;45096;52.302;4.634;2023-05-07T04:44:47;4.55;;;4.20;;
56653;SDS011;45096;52.302;4.634;2023-05-07T04:47:19;3.70;;;3.40;;
56653;SDS011;45096;52.302;4.634;2023-05-07T04:49:44;5.43;;;4.65;;
56653;SDS011;45096;52.302;4.634;2023-05-07T04:52:09;4.18;;;3.80;;
56653;SDS011;45096;52.302;4.634;2023-05-07T04:54:35;3.78;;;3.47;;
56653;SDS011;45096;52.302;4.634;2023-05-07T04:57:00;4.20;;;3.90;;
56653;SDS011;45096;52.302;4.634;2023-05-07T04:59:28;5.28;;;4.88;;
56653;SDS011;45096;52.302;4.634;2023-05-07T05:01:53;3.28;;;3.05;;
56653;SDS011;45096;52.302;4.634;2023-05-07T05:04:20;6.20;;;5.57;;
56653;SDS011;45096;52.302;4.634;2023-05-07T05:06:45;3.75;;;3.45;;
56653;SDS011;45096;52.302;4.634;2023-05-07T05:09:11;6.82;;;6.13;;
56653;SDS011;45096;52.302;4.634;2023-05-07T05:11:36;7.38;;;6.68;;
56653;SDS011;45096;52.302;4.634;2023-05-07T05:14:01;9.20;;;8.02;;
56653;SDS011;45096;52.302;4.634;2023-05-07T05:16:27;7.95;;;7.07;;
56653;SDS011;45096;52.302;4.634;2023-05-07T05:18:53;12.40;;;7.97;;
56653;SDS011;45096;52.302;4.634;2023-05-07T05:21:19;8.55;;;7.63;;
56653;SDS011;45096;52.302;4.634;2023-05-07T05:23:45;9.15;;;7.35;;
56653;SDS011;45096;52.302;4.634;2023-05-07T05:26:10;9.13;;;7.07;;
56653;SDS011;45096;52.302;4.634;2023-05-07T05:28:36;9.25;;;7.47;;
56653;SDS011;45096;52.302;4.634;2023-05-07T05:31:01;8.18;;;6.80;;
56653;SDS011;45096;52.302;4.634;2023-05-07T05:33:27;8.77;;;7.78;;
56653;SDS011;45096;52.302;4.634;2023-05-07T05:35:53;10.38;;;7.28;;
56653;SDS011;45096;52.302;4.634;2023-05-07T05:38:20;10.15;;;6.80;;
56653;SDS011;45096;52.302;4.634;2023-05-07T05:40:45;8.88;;;6.80;;
56653;SDS011;45096;52.302;4.634;2023-05-07T05:43:10;11.10;;;6.70;;
56653;SDS011;45096;52.302;4.634;2023-05-07T05:45:36;7.80;;;6.80;;
56653;SDS011;45096;52.302;4.634;2023-05-07T05:48:01;7.55;;;6.20;;
56653;SDS011;45096;52.302;4.634;2023-05-07T05:50:27;7.30;;;6.13;;
56653;SDS011;45096;52.302;4.634;2023-05-07T05:52:52;6.95;;;6.35;;
56653;SDS011;45096;52.302;4.634;2023-05-07T05:55:19;7.03;;;5.60;;
56653;SDS011;45096;52.302;4.634;2023-05-07T05:57:45;8.48;;;6.10;;
56653;SDS011;45096;52.302;4.634;2023-05-07T06:00:11;7.78;;;6.20;;
56653;SDS011;45096;52.302;4.634;2023-05-07T06:02:37;7.82;;;5.80;;
56653;SDS011;45096;52.302;4.634;2023-05-07T06:05:03;6.70;;;5.78;;
56653;SDS011;45096;52.302;4.634;2023-05-07T06:07:29;6.05;;;5.35;;
56653;SDS011;45096;52.302;4.634;2023-05-07T06:09:54;5.15;;;4.65;;
56653;SDS011;45096;52.302;4.634;2023-05-07T06:12:21;6.63;;;5.57;;
56653;SDS011;45096;52.302;4.634;2023-05-07T06:14:47;6.82;;;6.13;;
56653;SDS011;45096;52.302;4.634;2023-05-07T06:17:12;5.53;;;5.03;;
56653;SDS011;45096;52.302;4.634;2023-05-07T06:19:38;7.15;;;5.18;;
56653;SDS011;45096;52.302;4.634;2023-05-07T06:22:03;6.18;;;4.88;;
56653;SDS011;45096;52.302;4.634;2023-05-07T06:24:29;6.15;;;5.45;;
56653;SDS011;45096;52.302;4.634;2023-05-07T06:26:54;6.15;;;5.40;;
56653;SDS011;45096;52.302;4.634;2023-05-07T06:29:21;6.13;;;5.47;;
56653;SDS011;45096;52.302;4.634;2023-05-07T06:31:46;6.30;;;5.70;;
56653;SDS011;45096;52.302;4.634;2023-05-07T06:34:12;6.00;;;5.40;;
56653;SDS011;45096;52.302;4.634;2023-05-07T06:36:37;5.78;;;5.22;;
56653;SDS011;45096;52.302;4.634;2023-05-07T06:39:03;5.65;;;4.93;;
56653;SDS011;45096;52.302;4.634;2023-05-07T06:41:28;6.70;;;6.13;;
56653;SDS011;45096;52.302;4.634;2023-05-07T06:43:53;6.72;;;5.90;;
56653;SDS011;45096;52.302;4.634;2023-05-07T06:46:20;6.57;;;5.80;;
56653;SDS011;45096;52.302;4.634;2023-05-07T06:48:46;7.78;;;6.97;;
56653;SDS011;45096;52.302;4.634;2023-05-07T06:51:11;7.82;;;7.10;;
56653;SDS011;45096;52.302;4.634;2023-05-07T06:53:36;6.53;;;5.93;;
56653;SDS011;45096;52.302;4.634;2023-05-07T06:56:02;8.35;;;6.63;;
56653;SDS011;45096;52.302;4.634;2023-05-07T06:58:27;7.10;;;6.13;;
56653;SDS011;45096;52.302;4.634;2023-05-07T07:00:53;6.32;;;5.45;;
56653;SDS011;45096;52.302;4.634;2023-05-07T07:03:19;9.10;;;7.68;;
56653;SDS011;45096;52.302;4.634;2023-05-07T07:05:45;11.45;;;8.10;;
56653;SDS011;45096;52.302;4.634;2023-05-07T07:08:10;9.48;;;8.57;;
56653;SDS011;45096;52.302;4.634;2023-05-07T07:10:36;9.15;;;8.15;;
56653;SDS011;45096;52.302;4.634;2023-05-07T07:13:01;7.97;;;7.15;;
56653;SDS011;45096;52.302;4.634;2023-05-07T07:15:27;8.32;;;7.53;;
56653;SDS011;45096;52.302;4.634;2023-05-07T07:17:52;7.10;;;6.40;;
56653;SDS011;45096;52.302;4.634;2023-05-07T07:20:19;7.50;;;6.90;;
56653;SDS011;45096;52.302;4.634;2023-05-07T07:22:44;8.18;;;7.47;;
56653;SDS011;45096;52.302;4.634;2023-05-07T07:25:10;7.22;;;6.60;;
56653;SDS011;45096;52.302;4.634;2023-05-07T07:27:35;7.07;;;6.38;;
56653;SDS011;45096;52.302;4.634;2023-05-07T07:30:01;7.65;;;6.95;;
56653;SDS011;45096;52.302;4.634;2023-05-07T07:32:26;9.48;;;8.50;;
56653;SDS011;45096;52.302;4.634;2023-05-07T07:34:52;9.95;;;8.20;;
56653;SDS011;45096;52.302;4.634;2023-05-07T07:37:18;7.57;;;6.90;;
56653;SDS011;45096;52.302;4.634;2023-05-07T07:39:44;9.90;;;8.90;;
56653;SDS011;45096;52.302;4.634;2023-05-07T07:42:09;9.13;;;8.18;;
56653;SDS011;45096;52.302;4.634;2023-05-07T07:44:35;9.65;;;8.70;;
56653;SDS011;45096;52.302;4.634;2023-05-07T07:47:00;7.75;;;7.10;;
56653;SDS011;45096;52.302;4.634;2023-05-07T07:49:26;11.18;;;9.07;;
56653;SDS011;45096;52.302;4.634;2023-05-07T07:51:51;8.90;;;8.10;;
56653;SDS011;45096;52.302;4.634;2023-05-07T07:54:18;10.18;;;9.18;;
56653;SDS011;45096;52.302;4.634;2023-05-07T07:56:43;8.60;;;7.78;;
56653;SDS011;45096;52.302;4.634;2023-05-07T07:59:09;9.35;;;8.43;;
56653;SDS011;45096;52.302;4.634;2023-05-07T08:01:34;11.18;;;8.68;;
56653;SDS011;45096;52.302;4.634;2023-05-07T08:04:00;9.38;;;8.38;;
56653;SDS011;45096;52.302;4.634;2023-05-07T08:06:25;8.65;;;7.68;;
56653;SDS011;45096;52.302;4.634;2023-05-07T08:08:51;13.27;;;11.88;;
56653;SDS011;45096;52.302;4.634;2023-05-07T08:11:17;11.27;;;10.13;;
56653;SDS011;45096;52.302;4.634;2023-05-07T08:13:43;11.70;;;9.60;;
56653;SDS011;45096;52.302;4.634;2023-05-07T08:16:08;9.85;;;8.85;;
56653;SDS011;45096;52.302;4.634;2023-05-07T08:18:34;11.43;;;9.48;;
56653;SDS011;45096;52.302;4.634;2023-05-07T08:21:00;8.38;;;7.50;;
56653;SDS011;45096;52.302;4.634;2023-05-07T08:23:26;8.85;;;7.63;;
56653;SDS011;45096;52.302;4.634;2023-05-07T08:25:51;11.88;;;10.75;;
56653;SDS011;45096;52.302;4.634;2023-05-07T08:28:18;10.35;;;8.15;;
56653;SDS011;45096;52.302;4.634;2023-05-07T08:30:43;8.00;;;7.20;;
56653;SDS011;45096;52.302;4.634;2023-05-07T08:33:09;8.65;;;7.85;;
56653;SDS011;45096;52.302;4.634;2023-05-07T08:35:34;9.20;;;8.07;;
56653;SDS011;45096;52.302;4.634;2023-05-07T08:38:00;10.15;;;7.93;;
56653;SDS011;45096;52.302;4.634;2023-05-07T08:40:25;8.75;;;7.85;;
56653;SDS011;45096;52.302;4.634;2023-05-07T08:42:51;7.97;;;7.18;;
56653;SDS011;45096;52.302;4.634;2023-05-07T08:45:19;8.77;;;7.88;;
56653;SDS011;45096;52.302;4.634;2023-05-07T08:47:46;9.85;;;8.85;;
56653;SDS011;45096;52.302;4.634;2023-05-07T08:50:12;9.65;;;8.60;;
56653;SDS011;45096;52.302;4.634;2023-05-07T08:52:38;11.82;;;9.85;;
56653;SDS011;45096;52.302;4.634;2023-05-07T08:55:04;11.50;;;9.80;;
56653;SDS011;45096;52.302;4.634;2023-05-07T08:57:31;15.55;;;10.73;;
56653;SDS011;45096;52.302;4.634;2023-05-07T08:59:56;14.43;;;10.35;;
56653;SDS011;45096;52.302;4.634;2023-05-07T09:02:23;10.32;;;9.20;;
56653;SDS011;45096;52.302;4.634;2023-05-07T09:04:48;15.63;;;9.82;;
56653;SDS011;45096;52.302;4.634;2023-05-07T09:07:14;26.92;;;15.32;;
56653;SDS011;45096;52.302;4.634;2023-05-07T09:09:39;34.78;;;18.55;;
56653;SDS011;45096;52.302;4.634;2023-05-07T09:12:05;27.67;;;14.82;;
56653;SDS011;45096;52.302;4.634;2023-05-07T09:14:31;17.08;;;10.80;;
56653;SDS011;45096;52.302;4.634;2023-05-07T09:16:56;17.67;;;9.98;;
56653;SDS011;45096;52.302;4.634;2023-05-07T09:19:23;18.13;;;9.15;;
56653;SDS011;45096;52.302;4.634;2023-05-07T09:21:49;9.70;;;8.30;;
56653;SDS011;45096;52.302;4.634;2023-05-07T09:24:15;10.65;;;8.23;;
56653;SDS011;45096;52.302;4.634;2023-05-07T09:26:40;13.40;;;8.75;;
56653;SDS011;45096;52.302;4.634;2023-05-07T09:29:06;13.73;;;9.55;;
56653;SDS011;45096;52.302;4.634;2023-05-07T09:31:32;14.65;;;9.95;;
56653;SDS011;45096;52.302;4.634;2023-05-07T09:34:01;12.52;;;9.05;;
56653;SDS011;45096;52.302;4.634;2023-05-07T09:36:27;15.07;;;10.82;;
56653;SDS011;45096;52.302;4.634;2023-05-07T09:38:53;13.80;;;9.30;;
56653;SDS011;45096;52.302;4.634;2023-05-07T09:41:18;10.70;;;9.30;;
56653;SDS011;45096;52.302;4.634;2023-05-07T09:43:44;23.02;;;8.93;;
56653;SDS011;45096;52.302;4.634;2023-05-07T09:46:11;11.38;;;8.02;;
56653;SDS011;45096;52.302;4.634;2023-05-07T09:48:38;15.13;;;7.68;;
56653;SDS011;45096;52.302;4.634;2023-05-07T09:51:06;13.40;;;7.15;;
56653;SDS011;45096;52.302;4.634;2023-05-07T09:53:35;7.68;;;5.40;;
56653;SDS011;45096;52.302;4.634;2023-05-07T09:56:01;6.82;;;5.10;;
56653;SDS011;45096;52.302;4.634;2023-05-07T09:58:27;8.13;;;4.90;;
56653;SDS011;45096;52.302;4.634;2023-05-07T10:00:53;6.72;;;4.70;;
56653;SDS011;45096;52.302;4.634;2023-05-07T10:03:19;5.72;;;4.28;;
56653;SDS011;45096;52.302;4.634;2023-05-07T10:05:45;4.65;;;4.00;;
56653;SDS011;45096;52.302;4.634;2023-05-07T10:08:11;7.10;;;4.72;;
56653;SDS011;45096;52.302;4.634;2023-05-07T10:10:38;6.60;;;4.28;;
56653;SDS011;45096;52.302;4.634;2023-05-07T10:13:04;6.90;;;4.40;;
56653;SDS011;45096;52.302;4.634;2023-05-07T10:15:30;5.88;;;4.93;;
56653;SDS011;45096;52.302;4.634;2023-05-07T10:17:56;13.63;;;6.15;;
56653;SDS011;45096;52.302;4.634;2023-05-07T10:20:22;7.25;;;6.55;;
56653;SDS011;45096;52.302;4.634;2023-05-07T10:22:48;22.02;;;7.93;;
56653;SDS011;45096;52.302;4.634;2023-05-07T10:25:14;25.30;;;7.93;;
56653;SDS011;45096;52.302;4.634;2023-05-07T10:27:44;21.48;;;8.15;;
56653;SDS011;45096;52.302;4.634;2023-05-07T10:30:13;14.40;;;6.47;;
56653;SDS011;45096;52.302;4.634;2023-05-07T10:32:43;15.30;;;6.75;;
56653;SDS011;45096;52.302;4.634;2023-05-07T10:35:13;15.13;;;6.68;;
56653;SDS011;45096;52.302;4.634;2023-05-07T10:37:40;11.80;;;5.97;;
56653;SDS011;45096;52.302;4.634;2023-05-07T10:40:06;15.43;;;6.55;;
56653;SDS011;45096;52.302;4.634;2023-05-07T10:42:33;12.02;;;6.13;;
56653;SDS011;45096;52.302;4.634;2023-05-07T10:45:00;7.50;;;6.00;;
56653;SDS011;45096;52.302;4.634;2023-05-07T10:47:36;14.00;;;5.82;;
56653;SDS011;45096;52.302;4.634;2023-05-07T10:50:31;10.93;;;5.57;;
56653;SDS011;45096;52.302;4.634;2023-05-07T10:55:47;7.80;;;5.10;;
56653;SDS011;45096;52.302;4.634;2023-05-07T10:58:22;9.57;;;4.82;;
56653;SDS011;45096;52.302;4.634;2023-05-07T11:00:50;13.07;;;5.43;;
56653;SDS011;45096;52.302;4.634;2023-05-07T11:03:16;9.18;;;4.85;;
56653;SDS011;45096;52.302;4.634;2023-05-07T11:05:41;8.98;;;4.90;;
56653;SDS011;45096;52.302;4.634;2023-05-07T11:08:07;9.40;;;5.70;;
56653;SDS011;45096;52.302;4.634;2023-05-07T11:16:17;8.48;;;4.32;;
56653;SDS011;45096;52.302;4.634;2023-05-07T11:18:46;7.95;;;4.10;;
56653;SDS011;45096;52.302;4.634;2023-05-07T11:21:12;5.57;;;4.32;;
56653;SDS011;45096;52.302;4.634;2023-05-07T11:23:56;4.40;;;3.95;;
56653;SDS011;45096;52.302;4.634;2023-05-07T11:26:25;8.43;;;5.65;;
56653;SDS011;45096;52.302;4.634;2023-05-07T11:28:52;8.35;;;5.45;;
56653;SDS011;45096;52.302;4.634;2023-05-07T11:31:21;8.88;;;5.95;;
56653;SDS011;45096;52.302;4.634;2023-05-07T11:33:48;6.85;;;5.65;;
56653;SDS011;45096;52.302;4.634;2023-05-07T11:36:14;6.68;;;4.93;;
56653;SDS011;45096;52.302;4.634;2023-05-07T11:38:39;8.13;;;5.68;;
56653;SDS011;45096;52.302;4.634;2023-05-07T11:41:05;6.95;;;5.80;;
56653;SDS011;45096;52.302;4.634;2023-05-07T11:43:30;7.30;;;5.30;;
56653;SDS011;45096;52.302;4.634;2023-05-07T11:45:58;6.47;;;4.82;;
56653;SDS011;45096;52.302;4.634;2023-05-07T11:48:31;6.20;;;4.80;;
56653;SDS011;45096;52.302;4.634;2023-05-07T11:50:59;5.50;;;5.00;;
56653;SDS011;45096;52.302;4.634;2023-05-07T11:53:28;8.45;;;5.97;;
56653;SDS011;45096;52.302;4.634;2023-05-07T11:56:00;6.85;;;4.80;;
56653;SDS011;45096;52.302;4.634;2023-05-07T11:58:26;6.10;;;4.45;;
56653;SDS011;45096;52.302;4.634;2023-05-07T12:00:51;5.40;;;4.57;;
56653;SDS011;45096;52.302;4.634;2023-05-07T12:03:17;4.90;;;4.45;;
56653;SDS011;45096;52.302;4.634;2023-05-07T12:05:44;5.22;;;4.10;;
56653;SDS011;45096;52.302;4.634;2023-05-07T12:08:12;5.18;;;4.45;;
56653;SDS011;45096;52.302;4.634;2023-05-07T12:10:40;6.00;;;4.53;;
56653;SDS011;45096;52.302;4.634;2023-05-07T12:13:13;6.18;;;5.60;;
56653;SDS011;45096;52.302;4.634;2023-05-07T12:15:39;4.82;;;4.32;;
56653;SDS011;45096;52.302;4.634;2023-05-07T12:18:04;5.57;;;4.50;;
56653;SDS011;45096;52.302;4.634;2023-05-07T12:20:30;4.85;;;4.18;;
56653;SDS011;45096;52.302;4.634;2023-05-07T12:22:57;5.20;;;4.57;;
56653;SDS011;45096;52.302;4.634;2023-05-07T12:25:22;7.95;;;5.15;;
56653;SDS011;45096;52.302;4.634;2023-05-07T12:27:51;6.65;;;4.55;;
56653;SDS011;45096;52.302;4.634;2023-05-07T12:30:16;5.50;;;3.30;;
56653;SDS011;45096;52.302;4.634;2023-05-07T12:32:43;5.40;;;3.47;;
56653;SDS011;45096;52.302;4.634;2023-05-07T12:35:10;6.80;;;4.20;;
56653;SDS011;45096;52.302;4.634;2023-05-07T12:37:35;5.88;;;4.07;;
56653;SDS011;45096;52.302;4.634;2023-05-07T12:40:06;5.55;;;3.28;;
56653;SDS011;45096;52.302;4.634;2023-05-07T12:42:32;4.57;;;4.18;;
56653;SDS011;45096;52.302;4.634;2023-05-07T12:44:59;6.32;;;4.93;;
56653;SDS011;45096;52.302;4.634;2023-05-07T12:47:25;6.45;;;5.85;;
56653;SDS011;45096;52.302;4.634;2023-05-07T12:49:51;8.15;;;6.63;;
56653;SDS011;45096;52.302;4.634;2023-05-07T12:52:16;10.65;;;7.25;;
56653;SDS011;45096;52.302;4.634;2023-05-07T12:54:42;12.93;;;7.78;;
56653;SDS011;45096;52.302;4.634;2023-05-07T12:57:10;12.95;;;7.15;;
56653;SDS011;45096;52.302;4.634;2023-05-07T12:59:36;12.40;;;7.65;;
56653;SDS011;45096;52.302;4.634;2023-05-07T13:02:04;8.48;;;5.72;;
56653;SDS011;45096;52.302;4.634;2023-05-07T13:04:29;8.55;;;6.32;;
56653;SDS011;45096;52.302;4.634;2023-05-07T13:06:55;10.18;;;5.53;;
56653;SDS011;45096;52.302;4.634;2023-05-07T13:09:20;12.68;;;7.03;;
56653;SDS011;45096;52.302;4.634;2023-05-07T13:11:46;9.57;;;7.30;;
56653;SDS011;45096;52.302;4.634;2023-05-07T13:14:13;10.48;;;7.85;;
56653;SDS011;45096;52.302;4.634;2023-05-07T13:16:38;11.23;;;7.68;;
56653;SDS011;45096;52.302;4.634;2023-05-07T13:19:04;14.40;;;8.63;;
56653;SDS011;45096;52.302;4.634;2023-05-07T13:21:29;12.02;;;8.48;;
56653;SDS011;45096;52.302;4.634;2023-05-07T13:23:54;15.63;;;8.95;;
56653;SDS011;45096;52.302;4.634;2023-05-07T13:26:20;15.55;;;9.13;;
56653;SDS011;45096;52.302;4.634;2023-05-07T13:28:45;14.13;;;8.52;;
56653;SDS011;45096;52.302;4.634;2023-05-07T13:31:12;14.07;;;7.88;;
56653;SDS011;45096;52.302;4.634;2023-05-07T13:33:37;7.60;;;6.32;;
56653;SDS011;45096;52.302;4.634;2023-05-07T13:36:03;9.00;;;5.68;;
56653;SDS011;45096;52.302;4.634;2023-05-07T13:38:29;13.75;;;9.27;;
56653;SDS011;45096;52.302;4.634;2023-05-07T13:40:54;12.88;;;8.77;;
56653;SDS011;45096;52.302;4.634;2023-05-07T13:43:20;10.57;;;7.45;;
56653;SDS011;45096;52.302;4.634;2023-05-07T13:45:45;8.45;;;6.43;;
56653;SDS011;45096;52.302;4.634;2023-05-07T13:48:12;7.30;;;5.65;;
56653;SDS011;45096;52.302;4.634;2023-05-07T13:50:37;8.50;;;6.55;;
56653;SDS011;45096;52.302;4.634;2023-05-07T13:53:03;9.30;;;8.38;;
56653;SDS011;45096;52.302;4.634;2023-05-07T13:55:29;8.57;;;7.75;;
56653;SDS011;45096;52.302;4.634;2023-05-07T13:57:55;8.23;;;6.47;;
56653;SDS011;45096;52.302;4.634;2023-05-07T14:00:20;6.85;;;6.25;;
56653;SDS011;45096;52.302;4.634;2023-05-07T14:02:46;6.28;;;5.45;;
56653;SDS011;45096;52.302;4.634;2023-05-07T14:05:13;7.78;;;6.15;;
56653;SDS011;45096;52.302;4.634;2023-05-07T14:07:38;5.65;;;4.45;;
56653;SDS011;45096;52.302;4.634;2023-05-07T14:10:04;6.30;;;4.40;;
56653;SDS011;45096;52.302;4.634;2023-05-07T14:12:31;7.10;;;6.40;;
56653;SDS011;45096;52.302;4.634;2023-05-07T14:14:56;6.55;;;5.70;;
56653;SDS011;45096;52.302;4.634;2023-05-07T14:17:22;5.25;;;4.63;;
56653;SDS011;45096;52.302;4.634;2023-05-07T14:19:47;8.05;;;6.72;;
56653;SDS011;45096;52.302;4.634;2023-05-07T14:22:14;5.22;;;4.50;;
56653;SDS011;45096;52.302;4.634;2023-05-07T14:24:39;5.22;;;4.43;;
56653;SDS011;45096;52.302;4.634;2023-05-07T14:27:05;7.38;;;5.43;;
56653;SDS011;45096;52.302;4.634;2023-05-07T14:29:30;7.20;;;6.22;;
56653;SDS011;45096;52.302;4.634;2023-05-07T14:31:56;4.75;;;4.30;;
56653;SDS011;45096;52.302;4.634;2023-05-07T14:34:21;5.40;;;4.40;;
56653;SDS011;45096;52.302;4.634;2023-05-07T14:36:47;4.05;;;3.65;;
56653;SDS011;45096;52.302;4.634;2023-05-07T14:39:13;5.90;;;4.60;;
56653;SDS011;45096;52.302;4.634;2023-05-07T14:41:39;5.07;;;4.22;;
56653;SDS011;45096;52.302;4.634;2023-05-07T14:44:04;4.30;;;3.90;;